Terminal Aerodrome Forecast
Issued by NWS Blacksburg, VA

Home | Current Version | Previous Version | Text Only | Print | Product List | Glossary On
Versions: 1 2 3 4 5 6 7 8 9 10 11 12 13 14 15 16 17 18 19 20 21 22 23 24 25 26 27 28 29 30 31 32 33 34
000
FTUS41 KRNK 280520
TAFLYH
TAF
KLYH 280520Z 2806/0106 03005KT P6SM SCT040 BKN250
     FM281000 08006KT P6SM OVC035
     FM281500 VRB03KT P6SM OVC025
     FM282200 15005KT P6SM BKN022 OVC100=

USA.gov is the U.S. government's official web portal to all federal, state and local government web resources and services.